createdAt,value
2022-11-22T00:00:28.204Z,98545.63
2022-11-22T00:02:57.387Z,98541.06
2022-11-22T00:05:23.774Z,98542.75
2022-11-22T00:07:52.597Z,98532.75
2022-11-22T00:10:19.147Z,98527.53
2022-11-22T00:12:45.551Z,98527.97
2022-11-22T00:15:12.727Z,98521.72
2022-11-22T00:17:39.714Z,98518.63
2022-11-22T00:20:08.274Z,98518.19
2022-11-22T00:22:38.521Z,98519.88
2022-11-22T00:25:08.380Z,98513.63
2022-11-22T00:27:34.877Z,98506.53
2022-11-22T00:30:03.966Z,98511.94
2022-11-22T00:32:30.393Z,98505.09
2022-11-22T00:34:56.775Z,98504.25
2022-11-22T00:37:23.210Z,98512.56
2022-11-22T00:39:51.949Z,98508.19
2022-11-22T00:42:20.669Z,98509.47
2022-11-22T00:44:47.093Z,98498.63
2022-11-22T00:47:16.016Z,98504.47
2022-11-22T00:49:42.489Z,98524.25
2022-11-22T00:52:08.889Z,98518.19
2022-11-22T00:54:35.242Z,98516.94
2022-11-22T00:57:01.588Z,98529.44
2022-11-22T00:59:30.675Z,98550.06
2022-11-22T01:01:57.323Z,98545.47
2022-11-22T01:04:23.787Z,98552.16
2022-11-22T01:06:50.184Z,98552.75
2022-11-22T01:09:19.646Z,98556.09
2022-11-22T01:11:46.320Z,98550.88
2022-11-22T01:14:17.635Z,98555.03
2022-11-22T01:16:44.646Z,98552.34
2022-11-22T01:19:11.260Z,98557.34
2022-11-22T01:21:37.781Z,98560.69
2022-11-22T01:24:04.440Z,98561.50
2022-11-22T01:26:30.844Z,98560.25
2022-11-22T01:28:57.518Z,98555.50
2022-11-22T01:31:24.022Z,98558.38
2022-11-22T01:33:52.690Z,98561.94
2022-11-22T01:36:19.156Z,98562.34
2022-11-22T01:38:45.560Z,98570.88
2022-11-22T01:41:11.948Z,98567.34
2022-11-22T01:43:38.475Z,98561.91
2022-11-22T01:46:09.808Z,98572.56
2022-11-22T01:48:42.901Z,98568.16
2022-11-22T01:51:18.804Z,98561.91
2022-11-22T01:53:47.896Z,98560.28
2022-11-22T01:56:19.612Z,98573.16
2022-11-22T01:58:56.435Z,98586.09
2022-11-22T02:01:25.882Z,98590.44
2022-11-22T02:03:56.259Z,98587.97
2022-11-22T02:06:26.092Z,98593.16
2022-11-22T02:09:05.417Z,98590.44
2022-11-22T02:11:36.655Z,98588.59
2022-11-22T02:14:06.246Z,98591.09
2022-11-22T02:16:37.073Z,98589.00
2022-11-22T02:19:05.546Z,98583.59
2022-11-22T02:21:32.033Z,98594.03
2022-11-22T02:24:23.147Z,98584.84
2022-11-22T02:26:49.547Z,98590.25
2022-11-22T02:29:16.227Z,98591.94
2022-11-22T02:31:47.161Z,98602.75
2022-11-22T02:34:14.115Z,98610.28
2022-11-22T02:36:48.834Z,98620.88
2022-11-22T02:39:20.191Z,98615.47
2022-11-22T02:41:48.591Z,98616.94
2022-11-22T02:44:18.907Z,98621.09
2022-11-22T02:46:50.875Z,98624.66
2022-11-22T02:49:19.494Z,98616.53
2022-11-22T02:51:46.421Z,98619.44
2022-11-22T02:54:12.826Z,98617.97
2022-11-22T02:56:39.386Z,98624.19
2022-11-22T02:59:05.794Z,98630.69
2022-11-22T03:01:32.304Z,98627.31
2022-11-22T03:04:03.757Z,98632.75
2022-11-22T03:06:30.167Z,98639.00
2022-11-22T03:08:57.037Z,98645.66
2022-11-22T03:11:24.116Z,98641.72
2022-11-22T03:13:50.680Z,98634.00
2022-11-22T03:16:17.023Z,98635.03
2022-11-22T03:18:43.424Z,98639.41
2022-11-22T03:21:12.432Z,98636.28
2022-11-22T03:23:38.843Z,98640.25
2022-11-22T03:26:09.794Z,98627.34
2022-11-22T03:28:36.304Z,98626.06
2022-11-22T03:31:05.474Z,98637.50
2022-11-22T03:33:35.207Z,98646.06
2022-11-22T03:36:04.302Z,98644.78
2022-11-22T03:38:30.805Z,98659.78
2022-11-22T03:40:57.383Z,98657.06
2022-11-22T03:43:24.042Z,98653.94
2022-11-22T03:45:50.516Z,98651.44
2022-11-22T03:48:16.984Z,98652.25
2022-11-22T03:50:46.154Z,98652.44
2022-11-22T03:53:12.564Z,98657.88
2022-11-22T03:55:39.344Z,98652.66
2022-11-22T03:58:05.897Z,98652.66
2022-11-22T04:00:32.396Z,98651.84
2022-11-22T04:02:59.403Z,98667.69
2022-11-22T04:05:25.737Z,98659.53
2022-11-22T04:07:58.225Z,98667.69
2022-11-22T04:10:25.025Z,98672.47
2022-11-22T04:12:51.499Z,98676.66
2022-11-22T04:15:18.171Z,98686.44
2022-11-22T04:17:45.517Z,98678.72
2022-11-22T04:20:34.667Z,98687.69
2022-11-22T04:23:04.173Z,98688.28
2022-11-22T04:25:32.120Z,98686.41
2022-11-22T04:28:00.886Z,98692.25
2022-11-22T04:30:46.719Z,98686.22
2022-11-22T04:33:14.375Z,98685.38
2022-11-22T04:35:41.709Z,98687.22
2022-11-22T04:38:08.240Z,98685.56
2022-11-22T04:40:34.780Z,98696.16
2022-11-22T04:43:20.303Z,98696.97
2022-11-22T04:45:47.066Z,98701.94
2022-11-22T04:48:13.741Z,98701.53
2022-11-22T04:51:04.552Z,98705.47
2022-11-22T04:53:37.246Z,98697.72
2022-11-22T04:56:03.819Z,98699.56
2022-11-22T04:58:30.206Z,98692.72
2022-11-22T05:00:56.611Z,98693.53
2022-11-22T05:03:23.058Z,98697.84
2022-11-22T05:05:52.053Z,98698.00
2022-11-22T05:08:21.540Z,98700.28
2022-11-22T05:10:58.193Z,98698.97
2022-11-22T05:13:34.286Z,98704.78
2022-11-22T05:16:02.306Z,98695.75
2022-11-22T05:18:29.712Z,98703.81
2022-11-22T05:20:56.450Z,98706.28
2022-11-22T05:23:42.865Z,98704.78
2022-11-22T05:26:11.752Z,98709.53
2022-11-22T05:28:39.425Z,98716.53
2022-11-22T05:31:10.780Z,98716.75
2022-11-22T05:33:39.348Z,98714.63
2022-11-22T05:36:12.186Z,98716.66
2022-11-22T05:38:39.943Z,98719.63
2022-11-22T05:41:09.550Z,98725.06
2022-11-22T05:43:39.484Z,98730.34
2022-11-22T05:46:24.211Z,98735.56
2022-11-22T05:48:52.780Z,98736.44
2022-11-22T05:51:24.220Z,98726.25
2022-11-22T05:53:51.517Z,98743.31
2022-11-22T05:56:20.958Z,98747.94
2022-11-22T05:58:47.953Z,98741.78
2022-11-22T06:01:19.900Z,98747.63
2022-11-22T06:03:47.346Z,98759.09
2022-11-22T06:06:14.182Z,98755.41
2022-11-22T06:08:43.180Z,98767.31
2022-11-22T06:11:14.851Z,98767.34
2022-11-22T06:13:44.102Z,98775.09
2022-11-22T06:16:11.547Z,98777.00
2022-11-22T06:18:38.006Z,98773.88
2022-11-22T06:21:11.644Z,98772.03
2022-11-22T06:23:38.010Z,98780.13
2022-11-22T06:26:10.950Z,98783.03
2022-11-22T06:28:42.926Z,98781.16
2022-11-22T06:31:15.180Z,98782.84
2022-11-22T06:33:42.519Z,98786.72
2022-11-22T06:36:15.018Z,98786.91
2022-11-22T06:38:42.831Z,98793.44
2022-11-22T06:41:11.570Z,98795.53
2022-11-22T06:43:46.753Z,98801.25
2022-11-22T06:46:16.244Z,98808.09
2022-11-22T06:48:43.006Z,98809.50
2022-11-22T06:51:20.852Z,98810.94
2022-11-22T06:53:49.271Z,98811.16
2022-11-22T06:56:25.286Z,98814.03
2022-11-22T06:58:52.510Z,98813.63
2022-11-22T07:01:22.904Z,98822.41
2022-11-22T07:03:49.794Z,98828.22
2022-11-22T07:06:19.552Z,98833.16
2022-11-22T07:08:47.792Z,98824.66
2022-11-22T07:11:22.029Z,98828.56
2022-11-22T07:13:51.827Z,98832.13
2022-11-22T07:16:20.370Z,98843.91
2022-11-22T07:18:49.875Z,98840.31
2022-11-22T07:21:18.818Z,98843.81
2022-11-22T07:23:49.595Z,98840.75
2022-11-22T07:26:20.026Z,98844.91
2022-11-22T07:28:47.002Z,98849.03
2022-11-22T07:31:15.143Z,98857.16
2022-11-22T07:33:42.867Z,98867.44
2022-11-22T07:36:11.911Z,98863.25
2022-11-22T07:38:38.713Z,98866.56
2022-11-22T07:41:06.242Z,98877.03
2022-11-22T07:43:33.089Z,98881.53
2022-11-22T07:46:04.389Z,98890.47
2022-11-22T07:48:33.585Z,98888.75
2022-11-22T07:51:04.872Z,98888.09
2022-11-22T07:53:31.978Z,98896.47
2022-11-22T07:56:03.481Z,98896.25
2022-11-22T07:58:30.116Z,98896.94
2022-11-22T08:00:56.580Z,98902.81
2022-11-22T08:03:28.705Z,98906.53
2022-11-22T08:06:03.298Z,98904.28
2022-11-22T08:08:30.457Z,98915.34
2022-11-22T08:10:56.824Z,98909.09
2022-11-22T08:13:23.892Z,98911.84
2022-11-22T08:15:53.294Z,98914.81
2022-11-22T08:18:21.525Z,98917.31
2022-11-22T08:20:48.016Z,98918.59
2022-11-22T08:23:14.429Z,98922.41
2022-11-22T08:25:40.871Z,98921.81
2022-11-22T08:28:07.218Z,98921.19
2022-11-22T08:30:33.723Z,98908.56
2022-11-22T08:33:02.657Z,98907.97
2022-11-22T08:35:29.049Z,98913.63
2022-11-22T08:37:57.211Z,98907.22
2022-11-22T08:40:24.023Z,98910.19
2022-11-22T08:42:53.728Z,98910.63
2022-11-22T08:45:20.215Z,98915.03
2022-11-22T08:47:47.041Z,98913.63
2022-11-22T08:50:13.502Z,98917.38
2022-11-22T08:52:39.959Z,98921.19
2022-11-22T08:55:11.521Z,98915.19
2022-11-22T08:58:15.507Z,98923.34
2022-11-22T09:01:21.187Z,98927.16
2022-11-22T09:04:24.933Z,98920.06
2022-11-22T09:10:53.861Z,98924.28
2022-11-22T09:13:58.005Z,98926.13
2022-11-22T09:17:02.491Z,98921.38
2022-11-22T09:20:06.343Z,98916.78
2022-11-22T09:23:10.097Z,98921.63
2022-11-22T09:26:13.921Z,98922.22
2022-11-22T09:29:18.372Z,98925.19
2022-11-22T09:32:22.495Z,98930.00
2022-11-22T09:35:26.629Z,98925.41
2022-11-22T09:38:30.430Z,98931.06
2022-11-22T09:41:34.338Z,98931.06
2022-11-22T09:44:38.753Z,98925.22
2022-11-22T09:47:42.547Z,98922.09
2022-11-22T09:50:46.158Z,98911.03
2022-11-22T09:53:50.397Z,98902.28
2022-11-22T09:56:54.640Z,98906.84
2022-11-22T09:59:58.877Z,98903.50
2022-11-22T10:02:43.558Z,98907.69
2022-11-22T10:05:27.875Z,98908.09
2022-11-22T10:08:13.038Z,98914.81
2022-11-22T10:10:42.745Z,98912.94
2022-11-22T10:13:22.191Z,98904.13
2022-11-22T10:15:54.393Z,98916.47
2022-11-22T10:18:31.571Z,98928.19
2022-11-22T10:20:57.970Z,98915.03
2022-11-22T10:23:25.761Z,98916.47
2022-11-22T10:25:55.060Z,98916.47
2022-11-22T10:28:48.344Z,98914.41
2022-11-22T10:31:14.665Z,98916.28
2022-11-22T10:33:44.877Z,98917.75
2022-11-22T10:36:26.461Z,98916.25
2022-11-22T10:39:08.537Z,98937.59
2022-11-22T10:41:53.076Z,98912.94
2022-11-22T10:44:22.491Z,98911.03
2022-11-22T10:47:13.419Z,98912.28
2022-11-22T10:50:01.914Z,98907.69
2022-11-22T10:52:44.640Z,98913.53
2022-11-22T10:55:25.904Z,98918.13
2022-11-22T10:57:58.078Z,98914.13
2022-11-22T11:00:26.054Z,98913.09
2022-11-22T11:03:01.484Z,98919.78
2022-11-22T11:05:42.099Z,98908.88
2022-11-22T11:08:54.254Z,98912.22
2022-11-22T11:11:22.815Z,98924.34
2022-11-22T11:14:04.649Z,98904.88
2022-11-22T11:16:36.201Z,98913.91
2022-11-22T11:19:17.580Z,98896.94
2022-11-22T11:21:44.171Z,98904.25
2022-11-22T11:24:14.099Z,98903.00
2022-11-22T11:26:43.271Z,98906.31
2022-11-22T11:29:18.820Z,98897.97
2022-11-22T11:31:50.887Z,98902.13
2022-11-22T11:34:29.548Z,98897.53
2022-11-22T11:37:00.592Z,98903.81
2022-11-22T11:39:32.777Z,98890.41
2022-11-22T11:41:59.382Z,98897.06
2022-11-22T11:44:27.413Z,98885.56
2022-11-22T11:46:54.574Z,98892.03
2022-11-22T11:49:24.850Z,98896.63
2022-11-22T11:51:57.288Z,98879.47
2022-11-22T11:54:39.032Z,98881.19
2022-11-22T11:57:09.812Z,98889.09
2022-11-22T11:59:36.176Z,98881.78
2022-11-22T12:02:04.618Z,98895.38
2022-11-22T12:04:35.206Z,98895.59
2022-11-22T12:07:20.178Z,98896.88
2022-11-22T12:09:48.956Z,98885.38
2022-11-22T12:12:19.606Z,98880.75
2022-11-22T12:15:10.316Z,98886.63
2022-11-22T12:17:48.986Z,98864.44
2022-11-22T12:20:39.013Z,98876.16
2022-11-22T12:23:22.820Z,98874.47
2022-11-22T12:25:52.429Z,98856.03
2022-11-22T12:28:21.889Z,98869.03
2022-11-22T12:31:11.968Z,98857.06
2022-11-22T12:33:44.024Z,98839.09
2022-11-22T12:36:20.317Z,98853.72
2022-11-22T12:38:49.167Z,98840.75
2022-11-22T12:41:18.517Z,98841.16
2022-11-22T12:43:49.927Z,98846.78
2022-11-22T12:46:28.809Z,98828.41
2022-11-22T12:48:59.467Z,98871.28
2022-11-22T12:51:28.694Z,98842.84
2022-11-22T12:54:00.820Z,98853.06
2022-11-22T12:56:39.303Z,98845.75
2022-11-22T12:59:15.981Z,98851.78
2022-11-22T13:01:42.455Z,98837.56
2022-11-22T13:04:08.816Z,98853.66
2022-11-22T13:06:51.965Z,98848.44
2022-11-22T13:09:23.985Z,98849.31
2022-11-22T13:12:11.181Z,98857.22
2022-11-22T13:14:46.019Z,98847.44
2022-11-22T13:17:16.051Z,98860.84
2022-11-22T13:19:57.529Z,98861.88
2022-11-22T13:22:42.935Z,98848.53
2022-11-22T13:25:30.232Z,98849.13
2022-11-22T13:28:00.765Z,98848.97
2022-11-22T13:30:29.978Z,98864.63
2022-11-22T13:33:00.884Z,98845.59
2022-11-22T13:35:36.841Z,98844.38
2022-11-22T13:38:06.896Z,98842.28
2022-11-22T13:40:36.320Z,98850.44
2022-11-22T13:43:15.585Z,98847.09
2022-11-22T13:45:50.335Z,98856.06
2022-11-22T13:48:41.589Z,98832.25
2022-11-22T13:51:12.250Z,98834.34
2022-11-22T13:53:43.703Z,98856.06
2022-11-22T13:56:16.223Z,98858.59
2022-11-22T13:58:51.060Z,98839.78
2022-11-22T14:01:38.807Z,98843.31
2022-11-22T14:04:19.883Z,98843.13
2022-11-22T14:06:53.995Z,98849.19
2022-11-22T14:09:32.643Z,98832.88
2022-11-22T14:12:13.396Z,98858.19
2022-11-22T14:14:51.904Z,98847.53
2022-11-22T14:17:24.020Z,98847.97
2022-11-22T14:20:18.544Z,98854.25
2022-11-22T14:23:10.676Z,98863.69
2022-11-22T14:26:00.771Z,98849.88
2022-11-22T14:29:00.351Z,98840.94
2022-11-22T14:31:29.996Z,98846.38
2022-11-22T14:34:15.366Z,98842.19
2022-11-22T14:36:42.233Z,98864.13
2022-11-22T14:39:45.677Z,98857.47
2022-11-22T14:42:50.874Z,98862.69
2022-11-22T14:45:43.344Z,98875.69
2022-11-22T14:48:18.364Z,98857.69
2022-11-22T14:50:52.252Z,98870.88
2022-11-22T14:53:43.650Z,98868.59
2022-11-22T14:56:21.136Z,98881.53
2022-11-22T14:59:19.250Z,98880.94
2022-11-22T15:02:01.237Z,98871.75
2022-11-22T15:09:10.957Z,98884.28
2022-11-22T15:09:21.745Z,98875.50
2022-11-22T15:11:01.951Z,98886.00
2022-11-22T15:13:37.221Z,98884.75
2022-11-22T15:59:42.995Z,98943.41
2022-11-22T16:02:21.963Z,98949.88
2022-11-22T16:06:05.486Z,98952.34
2022-11-22T16:07:51.154Z,98958.22
2022-11-22T16:10:37.196Z,98958.22
2022-11-22T16:13:19.552Z,98965.72
2022-11-22T16:16:14.766Z,98968.22
2022-11-22T16:18:43.170Z,98972.00
2022-11-22T16:21:18.205Z,98974.91
2022-11-22T16:23:48.079Z,98975.53
2022-11-22T16:26:17.393Z,98975.09
2022-11-22T16:28:44.040Z,98974.88
2022-11-22T16:31:30.285Z,98985.28
2022-11-22T16:34:02.669Z,98976.72
2022-11-22T16:36:29.537Z,98979.88
2022-11-22T16:38:56.036Z,98984.88
2022-11-22T16:41:27.709Z,98977.13
2022-11-22T16:44:10.778Z,98980.28
2022-11-22T16:46:37.231Z,98983.59
2022-11-22T16:49:16.661Z,98981.91
2022-11-22T16:51:44.642Z,98983.16
2022-11-22T16:54:14.905Z,98987.94
2022-11-22T16:56:41.306Z,98991.91
2022-11-22T16:59:12.644Z,98998.34
2022-11-22T17:01:43.529Z,99001.28
2022-11-22T17:04:25.146Z,99004.78
2022-11-22T17:06:54.273Z,99000.19
2022-11-22T17:09:20.672Z,99006.44
2022-11-22T17:11:47.130Z,99005.78
2022-11-22T17:14:15.541Z,99010.59
2022-11-22T17:16:42.987Z,99013.50
2022-11-22T17:19:30.235Z,99008.28
2022-11-22T17:21:58.777Z,99011.00
2022-11-22T17:24:25.562Z,98999.72
2022-11-22T17:26:51.962Z,99009.31
2022-11-22T17:29:43.416Z,99004.47
2022-11-22T17:32:05.095Z,99014.88
2022-11-22T17:34:31.778Z,99012.56
2022-11-22T17:36:58.357Z,99021.91
2022-11-22T17:39:26.956Z,99015.03
2022-11-22T17:41:53.419Z,99025.03
2022-11-22T17:44:19.875Z,99022.31
2022-11-22T17:46:47.134Z,99023.97
2022-11-22T17:49:16.258Z,99022.28
2022-11-22T17:51:43.473Z,99022.09
2022-11-22T17:54:10.018Z,99025.44
2022-11-22T17:56:37.484Z,99029.84
2022-11-22T17:59:04.397Z,99029.44
2022-11-22T18:01:30.927Z,99023.59
2022-11-22T18:03:57.351Z,99024.63
2022-11-22T18:06:26.082Z,99033.81
2022-11-22T18:08:52.448Z,99029.44
2022-11-22T18:11:18.980Z,99019.63
2022-11-22T18:13:48.048Z,99030.47
2022-11-22T18:16:17.150Z,99029.00
2022-11-22T18:18:59.726Z,99027.13
2022-11-22T18:21:29.876Z,99031.69
2022-11-22T18:24:00.280Z,99029.19
2022-11-22T18:26:42.843Z,99035.00
2022-11-22T18:29:41.651Z,99032.03
2022-11-22T18:31:58.892Z,99034.94
2022-11-22T18:34:25.919Z,99047.97
2022-11-22T18:36:55.700Z,99035.63
2022-11-22T18:39:25.945Z,99044.28
2022-11-22T18:41:52.487Z,99045.03
2022-11-22T18:44:21.567Z,99053.56
2022-11-22T18:46:48.028Z,99049.16
2022-11-22T18:49:15.248Z,99048.81
2022-11-22T18:51:44.028Z,99048.97
2022-11-22T18:54:10.519Z,99049.38
2022-11-22T18:56:39.879Z,99046.84
2022-11-22T18:59:10.453Z,99063.50
2022-11-22T19:01:37.119Z,99056.16
2022-11-22T19:04:06.233Z,99056.69
2022-11-22T19:06:32.765Z,99056.81
2022-11-22T19:09:01.658Z,99063.25
2022-11-22T19:11:33.351Z,99057.88
2022-11-22T19:13:59.932Z,99062.56
2022-11-22T19:16:30.176Z,99058.75
2022-11-22T19:18:57.776Z,99067.97
2022-11-22T19:21:26.876Z,99068.94
2022-11-22T19:23:54.570Z,99067.06
2022-11-22T19:26:23.009Z,99074.91
2022-11-22T19:28:52.024Z,99071.09
2022-11-22T19:31:20.286Z,99064.84
2022-11-22T19:33:46.865Z,99073.53
2022-11-22T19:36:21.630Z,99068.50
2022-11-22T19:38:51.265Z,99060.09
2022-11-22T19:41:20.355Z,99065.06
2022-11-22T19:43:47.760Z,99069.16
2022-11-22T19:46:14.809Z,99077.84
2022-11-22T19:48:47.269Z,99072.16
2022-11-22T19:51:16.486Z,99084.66
2022-11-22T19:53:43.150Z,99075.22
2022-11-22T19:56:15.347Z,99079.31
2022-11-22T19:58:43.017Z,99078.78
2022-11-22T20:01:12.346Z,99081.47
2022-11-22T20:03:40.747Z,99084.81
2022-11-22T20:06:11.217Z,99086.28
2022-11-22T20:08:38.611Z,99094.78
2022-11-22T20:11:17.853Z,99091.06
2022-11-22T20:13:49.897Z,99093.31
2022-11-22T20:16:22.106Z,99090.84
2022-11-22T20:18:53.556Z,99097.47
2022-11-22T20:21:23.893Z,99097.75
2022-11-22T20:23:56.861Z,99096.25
2022-11-22T20:26:24.422Z,99097.00
2022-11-22T20:28:56.347Z,99105.56
2022-11-22T20:31:23.706Z,99099.22
2022-11-22T20:33:54.591Z,99100.63
2022-11-22T20:36:26.904Z,99103.50
2022-11-22T20:38:54.395Z,99095.38
2022-11-22T20:41:24.263Z,99099.59
2022-11-22T20:43:53.204Z,99104.63
2022-11-22T20:46:25.280Z,99113.03
2022-11-22T20:48:55.102Z,99123.94
2022-11-22T20:51:28.582Z,99127.75
2022-11-22T20:53:55.841Z,99128.03
2022-11-22T20:56:25.220Z,99133.16
2022-11-22T20:58:52.482Z,99136.06
2022-11-22T21:01:21.343Z,99132.50
2022-11-22T21:03:48.209Z,99132.03
2022-11-22T21:06:16.056Z,99133.22
2022-11-22T21:08:42.548Z,99130.63
2022-11-22T21:11:13.295Z,99132.00
2022-11-22T21:13:40.834Z,99134.41
2022-11-22T21:16:24.419Z,99142.81
2022-11-22T21:18:53.096Z,99145.50
2022-11-22T21:21:22.725Z,99146.59
2022-11-22T21:23:55.652Z,99151.69
2022-11-22T21:26:23.154Z,99146.38
2022-11-22T21:28:50.019Z,99155.84
2022-11-22T21:31:16.544Z,99170.38
2022-11-22T21:33:43.169Z,99162.16
2022-11-22T21:36:12.364Z,99173.13
2022-11-22T21:38:38.904Z,99168.72
2022-11-22T21:41:38.925Z,99170.47
2022-11-22T21:44:03.505Z,99174.97
2022-11-22T21:46:29.884Z,99174.75
2022-11-22T21:48:56.445Z,99165.81
2022-11-22T21:51:26.455Z,99171.41
2022-11-22T21:53:59.352Z,99176.16
2022-11-22T21:56:26.820Z,99183.13
2022-11-22T21:58:53.552Z,99182.09
2022-11-22T22:01:20.014Z,99186.47
2022-11-22T22:03:46.467Z,99189.56
2022-11-22T22:06:15.311Z,99185.13
2022-11-22T22:08:41.652Z,99181.88
2022-11-22T22:11:10.828Z,99182.34
2022-11-22T22:13:37.164Z,99177.97
2022-11-22T22:16:12.822Z,99176.66
2022-11-22T22:18:43.294Z,99176.59
2022-11-22T22:21:11.821Z,99174.31
2022-11-22T22:23:40.051Z,99175.75
2022-11-22T22:26:11.336Z,99180.16
2022-11-22T22:28:39.265Z,99177.09
2022-11-22T22:31:10.658Z,99178.28
2022-11-22T22:33:39.872Z,99182.13
2022-11-22T22:36:11.288Z,99175.88
2022-11-22T22:38:40.708Z,99173.66
2022-11-22T22:41:09.552Z,99185.78
2022-11-22T22:43:38.465Z,99188.41
2022-11-22T22:46:17.467Z,99186.56
2022-11-22T22:48:44.425Z,99187.56
2022-11-22T22:51:17.678Z,99192.59
2022-11-22T22:53:46.985Z,99191.41
2022-11-22T22:56:18.249Z,99192.44
2022-11-22T22:58:45.197Z,99189.84
2022-11-22T23:01:20.712Z,99192.25
2022-11-22T23:03:58.539Z,99197.19
2022-11-22T23:06:26.800Z,99188.56
2022-11-22T23:08:54.629Z,99191.47
2022-11-22T23:11:43.843Z,99187.94
2022-11-22T23:14:11.502Z,99196.63
2022-11-22T23:16:40.721Z,99198.00
2022-11-22T23:19:07.792Z,99198.25
2022-11-22T23:21:34.604Z,99188.31
2022-11-22T23:24:03.788Z,99185.97
2022-11-22T23:26:30.218Z,99191.41
2022-11-22T23:29:00.321Z,99200.47
2022-11-22T23:31:29.291Z,99199.16
2022-11-22T23:33:55.994Z,99203.41
2022-11-22T23:36:23.092Z,99209.81
2022-11-22T23:38:49.650Z,99213.31
2022-11-22T23:41:19.898Z,99210.78
2022-11-22T23:43:50.105Z,99208.19
2022-11-22T23:46:16.605Z,99213.06
2022-11-22T23:48:47.308Z,99214.19
2022-11-22T23:51:14.854Z,99205.09
2022-11-22T23:53:41.447Z,99199.53
2022-11-22T23:56:21.815Z,99206.03
2022-11-22T23:58:48.995Z,99199.09
